sensor_id;sensor_type;location;lat;lon;timestamp;P1;durP1;ratioP1;P2;durP2;ratioP2
37203;SDS011;23098;48.054;10.636;2023-12-20T00:01:28;4.05;;;2.55;;
37203;SDS011;23098;48.054;10.636;2023-12-20T00:03:54;4.32;;;2.53;;
37203;SDS011;23098;48.054;10.636;2023-12-20T00:06:19;2.92;;;2.03;;
37203;SDS011;23098;48.054;10.636;2023-12-20T00:08:45;3.72;;;2.33;;
37203;SDS011;23098;48.054;10.636;2023-12-20T00:11:10;4.03;;;2.42;;
37203;SDS011;23098;48.054;10.636;2023-12-20T00:13:36;3.90;;;2.13;;
37203;SDS011;23098;48.054;10.636;2023-12-20T00:16:01;3.92;;;2.30;;
37203;SDS011;23098;48.054;10.636;2023-12-20T00:18:27;2.97;;;1.83;;
37203;SDS011;23098;48.054;10.636;2023-12-20T00:20:53;3.90;;;2.45;;
37203;SDS011;23098;48.054;10.636;2023-12-20T00:23:18;3.47;;;2.22;;
37203;SDS011;23098;48.054;10.636;2023-12-20T00:25:44;3.92;;;2.10;;
37203;SDS011;23098;48.054;10.636;2023-12-20T00:28:09;2.55;;;1.80;;
37203;SDS011;23098;48.054;10.636;2023-12-20T00:30:35;2.65;;;2.10;;
37203;SDS011;23098;48.054;10.636;2023-12-20T00:33:02;4.32;;;2.30;;
37203;SDS011;23098;48.054;10.636;2023-12-20T00:35:28;3.08;;;2.10;;
37203;SDS011;23098;48.054;10.636;2023-12-20T00:37:53;2.17;;;1.67;;
37203;SDS011;23098;48.054;10.636;2023-12-20T00:40:20;2.90;;;1.90;;
37203;SDS011;23098;48.054;10.636;2023-12-20T00:42:47;2.65;;;2.00;;
37203;SDS011;23098;48.054;10.636;2023-12-20T00:45:13;2.90;;;1.80;;
37203;SDS011;23098;48.054;10.636;2023-12-20T00:47:39;2.40;;;1.50;;
37203;SDS011;23098;48.054;10.636;2023-12-20T00:50:05;3.30;;;1.80;;
37203;SDS011;23098;48.054;10.636;2023-12-20T00:52:31;2.95;;;1.48;;
37203;SDS011;23098;48.054;10.636;2023-12-20T00:54:57;2.17;;;1.58;;
37203;SDS011;23098;48.054;10.636;2023-12-20T00:57:22;4.85;;;1.35;;
37203;SDS011;23098;48.054;10.636;2023-12-20T00:59:48;2.38;;;1.58;;
37203;SDS011;23098;48.054;10.636;2023-12-20T01:02:14;2.80;;;1.70;;
37203;SDS011;23098;48.054;10.636;2023-12-20T01:04:40;2.53;;;1.80;;
37203;SDS011;23098;48.054;10.636;2023-12-20T01:07:06;2.65;;;1.75;;
37203;SDS011;23098;48.054;10.636;2023-12-20T01:09:31;2.08;;;1.35;;
37203;SDS011;23098;48.054;10.636;2023-12-20T01:11:57;2.40;;;1.40;;
37203;SDS011;23098;48.054;10.636;2023-12-20T01:14:22;1.70;;;0.93;;
37203;SDS011;23098;48.054;10.636;2023-12-20T01:16:48;2.10;;;1.05;;
37203;SDS011;23098;48.054;10.636;2023-12-20T01:19:13;1.92;;;1.33;;
37203;SDS011;23098;48.054;10.636;2023-12-20T01:21:39;1.52;;;1.15;;
37203;SDS011;23098;48.054;10.636;2023-12-20T01:24:05;2.88;;;1.40;;
37203;SDS011;23098;48.054;10.636;2023-12-20T01:26:31;1.77;;;1.10;;
37203;SDS011;23098;48.054;10.636;2023-12-20T01:28:56;1.48;;;0.98;;
37203;SDS011;23098;48.054;10.636;2023-12-20T01:31:22;1.85;;;1.10;;
37203;SDS011;23098;48.054;10.636;2023-12-20T01:33:47;1.42;;;0.90;;
37203;SDS011;23098;48.054;10.636;2023-12-20T01:36:13;2.42;;;1.45;;
37203;SDS011;23098;48.054;10.636;2023-12-20T01:38:38;1.17;;;0.95;;
37203;SDS011;23098;48.054;10.636;2023-12-20T01:41:04;1.48;;;1.10;;
37203;SDS011;23098;48.054;10.636;2023-12-20T01:43:29;1.85;;;1.17;;
37203;SDS011;23098;48.054;10.636;2023-12-20T01:45:58;1.75;;;1.23;;
37203;SDS011;23098;48.054;10.636;2023-12-20T01:48:25;1.15;;;0.90;;
37203;SDS011;23098;48.054;10.636;2023-12-20T01:50:52;1.17;;;1.08;;
37203;SDS011;23098;48.054;10.636;2023-12-20T01:53:19;1.10;;;0.65;;
37203;SDS011;23098;48.054;10.636;2023-12-20T01:55:46;1.73;;;1.25;;
37203;SDS011;23098;48.054;10.636;2023-12-20T01:58:14;1.95;;;0.85;;
37203;SDS011;23098;48.054;10.636;2023-12-20T02:00:40;1.48;;;1.05;;
37203;SDS011;23098;48.054;10.636;2023-12-20T02:03:06;2.40;;;1.55;;
37203;SDS011;23098;48.054;10.636;2023-12-20T02:05:32;2.30;;;1.65;;
37203;SDS011;23098;48.054;10.636;2023-12-20T02:07:58;1.52;;;1.17;;
37203;SDS011;23098;48.054;10.636;2023-12-20T02:10:24;1.20;;;0.90;;
37203;SDS011;23098;48.054;10.636;2023-12-20T02:12:50;1.42;;;0.90;;
37203;SDS011;23098;48.054;10.636;2023-12-20T02:15:15;1.08;;;0.95;;
37203;SDS011;23098;48.054;10.636;2023-12-20T02:17:41;1.63;;;0.93;;
37203;SDS011;23098;48.054;10.636;2023-12-20T02:20:08;1.80;;;1.20;;
37203;SDS011;23098;48.054;10.636;2023-12-20T02:22:33;4.15;;;1.60;;
37203;SDS011;23098;48.054;10.636;2023-12-20T02:24:59;1.27;;;1.00;;
37203;SDS011;23098;48.054;10.636;2023-12-20T02:27:24;2.15;;;1.10;;
37203;SDS011;23098;48.054;10.636;2023-12-20T02:29:50;1.80;;;1.10;;
37203;SDS011;23098;48.054;10.636;2023-12-20T02:32:17;1.63;;;1.35;;
37203;SDS011;23098;48.054;10.636;2023-12-20T02:34:43;2.47;;;1.35;;
37203;SDS011;23098;48.054;10.636;2023-12-20T02:37:11;2.05;;;1.40;;
37203;SDS011;23098;48.054;10.636;2023-12-20T02:39:37;1.02;;;0.85;;
37203;SDS011;23098;48.054;10.636;2023-12-20T02:42:02;1.05;;;0.75;;
37203;SDS011;23098;48.054;10.636;2023-12-20T02:44:28;2.47;;;1.35;;
37203;SDS011;23098;48.054;10.636;2023-12-20T02:46:54;1.50;;;1.17;;
37203;SDS011;23098;48.054;10.636;2023-12-20T02:49:19;0.70;;;0.57;;
37203;SDS011;23098;48.054;10.636;2023-12-20T02:51:45;1.95;;;1.23;;
37203;SDS011;23098;48.054;10.636;2023-12-20T02:54:12;0.93;;;0.65;;
37203;SDS011;23098;48.054;10.636;2023-12-20T02:56:37;1.35;;;1.05;;
37203;SDS011;23098;48.054;10.636;2023-12-20T02:59:03;0.80;;;0.70;;
37203;SDS011;23098;48.054;10.636;2023-12-20T03:01:30;1.15;;;1.05;;
37203;SDS011;23098;48.054;10.636;2023-12-20T03:03:56;1.23;;;0.85;;
37203;SDS011;23098;48.054;10.636;2023-12-20T03:06:22;1.85;;;1.25;;
37203;SDS011;23098;48.054;10.636;2023-12-20T03:08:47;1.75;;;1.40;;
37203;SDS011;23098;48.054;10.636;2023-12-20T03:11:13;1.55;;;1.17;;
37203;SDS011;23098;48.054;10.636;2023-12-20T03:13:38;1.42;;;1.02;;
37203;SDS011;23098;48.054;10.636;2023-12-20T03:16:10;1.85;;;1.50;;
37203;SDS011;23098;48.054;10.636;2023-12-20T03:18:37;1.35;;;1.00;;
37203;SDS011;23098;48.054;10.636;2023-12-20T03:21:04;2.75;;;1.60;;
37203;SDS011;23098;48.054;10.636;2023-12-20T03:23:30;1.92;;;1.50;;
37203;SDS011;23098;48.054;10.636;2023-12-20T03:25:57;3.13;;;1.50;;
37203;SDS011;23098;48.054;10.636;2023-12-20T03:28:23;2.47;;;1.67;;
37203;SDS011;23098;48.054;10.636;2023-12-20T03:30:49;1.80;;;1.42;;
37203;SDS011;23098;48.054;10.636;2023-12-20T03:33:14;1.95;;;1.70;;
37203;SDS011;23098;48.054;10.636;2023-12-20T03:35:40;2.72;;;1.92;;
37203;SDS011;23098;48.054;10.636;2023-12-20T03:38:06;1.80;;;1.35;;
37203;SDS011;23098;48.054;10.636;2023-12-20T03:40:31;2.92;;;1.63;;
37203;SDS011;23098;48.054;10.636;2023-12-20T03:42:57;3.83;;;1.83;;
37203;SDS011;23098;48.054;10.636;2023-12-20T03:45:22;6.28;;;2.75;;
37203;SDS011;23098;48.054;10.636;2023-12-20T03:47:48;3.30;;;2.38;;
37203;SDS011;23098;48.054;10.636;2023-12-20T03:50:13;3.70;;;2.75;;
37203;SDS011;23098;48.054;10.636;2023-12-20T03:52:39;3.72;;;2.40;;
37203;SDS011;23098;48.054;10.636;2023-12-20T03:55:05;3.80;;;2.70;;
37203;SDS011;23098;48.054;10.636;2023-12-20T03:57:30;3.20;;;2.40;;
37203;SDS011;23098;48.054;10.636;2023-12-20T03:59:56;2.85;;;2.05;;
37203;SDS011;23098;48.054;10.636;2023-12-20T04:02:21;4.78;;;2.72;;
37203;SDS011;23098;48.054;10.636;2023-12-20T04:04:47;6.65;;;3.28;;
37203;SDS011;23098;48.054;10.636;2023-12-20T04:07:12;3.50;;;2.45;;
37203;SDS011;23098;48.054;10.636;2023-12-20T04:09:38;3.63;;;2.15;;
37203;SDS011;23098;48.054;10.636;2023-12-20T04:12:05;2.50;;;1.95;;
37203;SDS011;23098;48.054;10.636;2023-12-20T04:14:31;5.30;;;3.58;;
37203;SDS011;23098;48.054;10.636;2023-12-20T04:16:57;7.18;;;3.47;;
37203;SDS011;23098;48.054;10.636;2023-12-20T04:19:22;5.18;;;3.20;;
37203;SDS011;23098;48.054;10.636;2023-12-20T04:21:48;4.45;;;2.47;;
37203;SDS011;23098;48.054;10.636;2023-12-20T04:24:13;3.70;;;2.67;;
37203;SDS011;23098;48.054;10.636;2023-12-20T04:26:39;6.05;;;3.47;;
37203;SDS011;23098;48.054;10.636;2023-12-20T04:29:04;4.05;;;2.85;;
37203;SDS011;23098;48.054;10.636;2023-12-20T04:31:30;4.38;;;2.75;;
37203;SDS011;23098;48.054;10.636;2023-12-20T04:33:55;4.55;;;2.58;;
37203;SDS011;23098;48.054;10.636;2023-12-20T04:36:21;5.68;;;3.55;;
37203;SDS011;23098;48.054;10.636;2023-12-20T04:38:46;5.07;;;3.58;;
37203;SDS011;23098;48.054;10.636;2023-12-20T04:41:12;5.75;;;3.40;;
37203;SDS011;23098;48.054;10.636;2023-12-20T04:43:40;4.05;;;2.78;;
37203;SDS011;23098;48.054;10.636;2023-12-20T04:46:06;4.47;;;3.28;;
37203;SDS011;23098;48.054;10.636;2023-12-20T04:48:31;4.57;;;2.28;;
37203;SDS011;23098;48.054;10.636;2023-12-20T04:50:57;5.13;;;3.50;;
37203;SDS011;23098;48.054;10.636;2023-12-20T04:53:22;5.78;;;3.60;;
37203;SDS011;23098;48.054;10.636;2023-12-20T04:55:48;4.68;;;2.83;;
37203;SDS011;23098;48.054;10.636;2023-12-20T04:58:13;6.43;;;3.33;;
37203;SDS011;23098;48.054;10.636;2023-12-20T05:00:39;5.80;;;4.05;;
37203;SDS011;23098;48.054;10.636;2023-12-20T05:03:05;4.50;;;2.97;;
37203;SDS011;23098;48.054;10.636;2023-12-20T05:05:30;4.07;;;2.60;;
37203;SDS011;23098;48.054;10.636;2023-12-20T05:07:56;5.93;;;3.75;;
37203;SDS011;23098;48.054;10.636;2023-12-20T05:10:22;3.85;;;2.60;;
37203;SDS011;23098;48.054;10.636;2023-12-20T05:12:47;3.65;;;2.65;;
37203;SDS011;23098;48.054;10.636;2023-12-20T05:15:13;5.20;;;3.55;;
37203;SDS011;23098;48.054;10.636;2023-12-20T05:17:40;3.15;;;2.42;;
37203;SDS011;23098;48.054;10.636;2023-12-20T05:20:06;5.85;;;3.05;;
37203;SDS011;23098;48.054;10.636;2023-12-20T05:22:32;4.68;;;2.90;;
37203;SDS011;23098;48.054;10.636;2023-12-20T05:24:58;3.60;;;2.10;;
37203;SDS011;23098;48.054;10.636;2023-12-20T05:27:23;5.13;;;2.78;;
37203;SDS011;23098;48.054;10.636;2023-12-20T05:29:49;5.47;;;3.58;;
37203;SDS011;23098;48.054;10.636;2023-12-20T05:32:15;3.50;;;2.70;;
37203;SDS011;23098;48.054;10.636;2023-12-20T05:34:41;5.78;;;2.90;;
37203;SDS011;23098;48.054;10.636;2023-12-20T05:37:07;4.88;;;3.25;;
37203;SDS011;23098;48.054;10.636;2023-12-20T05:39:32;3.38;;;2.50;;
37203;SDS011;23098;48.054;10.636;2023-12-20T05:41:58;5.28;;;2.83;;
37203;SDS011;23098;48.054;10.636;2023-12-20T05:44:23;5.18;;;2.90;;
37203;SDS011;23098;48.054;10.636;2023-12-20T05:46:49;4.93;;;2.38;;
37203;SDS011;23098;48.054;10.636;2023-12-20T05:49:14;3.83;;;2.90;;
37203;SDS011;23098;48.054;10.636;2023-12-20T05:51:40;5.57;;;3.13;;
37203;SDS011;23098;48.054;10.636;2023-12-20T05:54:05;3.40;;;2.40;;
37203;SDS011;23098;48.054;10.636;2023-12-20T05:56:31;2.67;;;1.63;;
37203;SDS011;23098;48.054;10.636;2023-12-20T05:58:56;3.00;;;2.00;;
37203;SDS011;23098;48.054;10.636;2023-12-20T06:01:23;4.75;;;2.50;;
37203;SDS011;23098;48.054;10.636;2023-12-20T06:03:50;3.88;;;2.22;;
37203;SDS011;23098;48.054;10.636;2023-12-20T06:06:15;2.40;;;1.70;;
37203;SDS011;23098;48.054;10.636;2023-12-20T06:08:42;2.28;;;1.80;;
37203;SDS011;23098;48.054;10.636;2023-12-20T06:11:08;3.28;;;2.13;;
37203;SDS011;23098;48.054;10.636;2023-12-20T06:13:35;4.07;;;2.13;;
37203;SDS011;23098;48.054;10.636;2023-12-20T06:16:01;1.77;;;1.55;;
37203;SDS011;23098;48.054;10.636;2023-12-20T06:18:26;1.90;;;1.50;;
37203;SDS011;23098;48.054;10.636;2023-12-20T06:20:52;2.25;;;1.70;;
37203;SDS011;23098;48.054;10.636;2023-12-20T06:23:17;2.58;;;1.48;;
37203;SDS011;23098;48.054;10.636;2023-12-20T06:25:43;2.28;;;1.35;;
37203;SDS011;23098;48.054;10.636;2023-12-20T06:28:09;2.90;;;1.67;;
37203;SDS011;23098;48.054;10.636;2023-12-20T06:30:35;1.98;;;1.50;;
37203;SDS011;23098;48.054;10.636;2023-12-20T06:33:01;1.45;;;1.20;;
37203;SDS011;23098;48.054;10.636;2023-12-20T06:35:26;2.65;;;1.75;;
37203;SDS011;23098;48.054;10.636;2023-12-20T06:37:52;2.33;;;1.52;;
37203;SDS011;23098;48.054;10.636;2023-12-20T06:40:17;3.15;;;1.98;;
37203;SDS011;23098;48.054;10.636;2023-12-20T06:42:43;4.32;;;1.35;;
37203;SDS011;23098;48.054;10.636;2023-12-20T06:45:09;2.83;;;1.55;;
37203;SDS011;23098;48.054;10.636;2023-12-20T06:47:35;1.92;;;1.42;;
37203;SDS011;23098;48.054;10.636;2023-12-20T06:50:00;3.53;;;1.48;;
37203;SDS011;23098;48.054;10.636;2023-12-20T06:52:26;2.15;;;1.63;;
37203;SDS011;23098;48.054;10.636;2023-12-20T06:54:52;2.47;;;1.90;;
37203;SDS011;23098;48.054;10.636;2023-12-20T06:57:17;2.20;;;1.55;;
37203;SDS011;23098;48.054;10.636;2023-12-20T06:59:44;1.48;;;1.05;;
37203;SDS011;23098;48.054;10.636;2023-12-20T07:02:10;1.83;;;1.40;;
37203;SDS011;23098;48.054;10.636;2023-12-20T07:04:39;1.33;;;1.10;;
37203;SDS011;23098;48.054;10.636;2023-12-20T07:07:05;3.72;;;1.73;;
37203;SDS011;23098;48.054;10.636;2023-12-20T07:09:32;2.08;;;1.88;;
37203;SDS011;23098;48.054;10.636;2023-12-20T07:11:58;2.35;;;1.50;;
37203;SDS011;23098;48.054;10.636;2023-12-20T07:14:23;2.58;;;1.55;;
37203;SDS011;23098;48.054;10.636;2023-12-20T07:16:49;2.15;;;1.70;;
37203;SDS011;23098;48.054;10.636;2023-12-20T07:19:14;2.60;;;1.48;;
37203;SDS011;23098;48.054;10.636;2023-12-20T07:21:40;1.52;;;1.23;;
37203;SDS011;23098;48.054;10.636;2023-12-20T07:24:05;2.30;;;1.50;;
37203;SDS011;23098;48.054;10.636;2023-12-20T07:26:31;2.47;;;1.27;;
37203;SDS011;23098;48.054;10.636;2023-12-20T07:28:57;2.55;;;1.95;;
37203;SDS011;23098;48.054;10.636;2023-12-20T07:31:23;2.47;;;1.45;;
37203;SDS011;23098;48.054;10.636;2023-12-20T07:33:49;2.35;;;1.73;;
37203;SDS011;23098;48.054;10.636;2023-12-20T07:36:14;1.77;;;1.30;;
37203;SDS011;23098;48.054;10.636;2023-12-20T07:38:40;2.20;;;1.63;;
37203;SDS011;23098;48.054;10.636;2023-12-20T07:41:09;1.80;;;1.27;;
37203;SDS011;23098;48.054;10.636;2023-12-20T07:43:34;2.47;;;2.10;;
37203;SDS011;23098;48.054;10.636;2023-12-20T07:46:04;2.58;;;1.98;;
37203;SDS011;23098;48.054;10.636;2023-12-20T07:48:34;2.72;;;1.60;;
37203;SDS011;23098;48.054;10.636;2023-12-20T07:51:00;2.28;;;1.77;;
37203;SDS011;23098;48.054;10.636;2023-12-20T07:53:26;2.45;;;2.00;;
37203;SDS011;23098;48.054;10.636;2023-12-20T07:55:52;1.75;;;1.33;;
37203;SDS011;23098;48.054;10.636;2023-12-20T07:58:18;1.63;;;1.20;;
37203;SDS011;23098;48.054;10.636;2023-12-20T08:00:43;1.88;;;1.50;;
37203;SDS011;23098;48.054;10.636;2023-12-20T08:03:09;1.73;;;1.33;;
37203;SDS011;23098;48.054;10.636;2023-12-20T08:05:34;2.22;;;1.42;;
37203;SDS011;23098;48.054;10.636;2023-12-20T08:08:00;2.63;;;1.65;;
37203;SDS011;23098;48.054;10.636;2023-12-20T08:10:25;1.92;;;1.30;;
37203;SDS011;23098;48.054;10.636;2023-12-20T08:12:54;1.80;;;1.45;;
37203;SDS011;23098;48.054;10.636;2023-12-20T08:15:20;1.77;;;1.30;;
37203;SDS011;23098;48.054;10.636;2023-12-20T08:17:45;2.53;;;1.52;;
37203;SDS011;23098;48.054;10.636;2023-12-20T08:20:11;2.13;;;1.42;;
37203;SDS011;23098;48.054;10.636;2023-12-20T08:22:36;2.20;;;1.38;;
37203;SDS011;23098;48.054;10.636;2023-12-20T08:25:02;2.00;;;1.40;;
37203;SDS011;23098;48.054;10.636;2023-12-20T08:27:28;1.30;;;0.98;;
37203;SDS011;23098;48.054;10.636;2023-12-20T08:29:53;1.58;;;1.38;;
37203;SDS011;23098;48.054;10.636;2023-12-20T08:32:19;2.28;;;2.00;;
37203;SDS011;23098;48.054;10.636;2023-12-20T08:34:44;1.23;;;1.10;;
37203;SDS011;23098;48.054;10.636;2023-12-20T08:37:11;1.65;;;1.17;;
37203;SDS011;23098;48.054;10.636;2023-12-20T08:39:36;1.83;;;1.48;;
37203;SDS011;23098;48.054;10.636;2023-12-20T08:42:02;1.83;;;1.42;;
37203;SDS011;23098;48.054;10.636;2023-12-20T08:44:27;1.58;;;1.17;;
37203;SDS011;23098;48.054;10.636;2023-12-20T08:46:53;1.70;;;1.35;;
37203;SDS011;23098;48.054;10.636;2023-12-20T08:49:22;2.10;;;1.70;;
37203;SDS011;23098;48.054;10.636;2023-12-20T08:51:47;1.42;;;1.15;;
37203;SDS011;23098;48.054;10.636;2023-12-20T08:54:13;2.22;;;1.42;;
37203;SDS011;23098;48.054;10.636;2023-12-20T08:56:39;1.98;;;1.60;;
37203;SDS011;23098;48.054;10.636;2023-12-20T08:59:04;1.23;;;1.13;;
37203;SDS011;23098;48.054;10.636;2023-12-20T09:01:30;2.58;;;1.40;;
37203;SDS011;23098;48.054;10.636;2023-12-20T09:03:56;5.40;;;1.70;;
37203;SDS011;23098;48.054;10.636;2023-12-20T09:06:24;1.40;;;1.27;;
37203;SDS011;23098;48.054;10.636;2023-12-20T09:08:51;2.25;;;1.83;;
37203;SDS011;23098;48.054;10.636;2023-12-20T09:11:34;2.55;;;1.92;;
37203;SDS011;23098;48.054;10.636;2023-12-20T09:14:00;2.83;;;1.30;;
37203;SDS011;23098;48.054;10.636;2023-12-20T09:16:25;1.85;;;1.42;;
37203;SDS011;23098;48.054;10.636;2023-12-20T09:18:51;1.65;;;1.30;;
37203;SDS011;23098;48.054;10.636;2023-12-20T09:21:16;2.50;;;1.30;;
37203;SDS011;23098;48.054;10.636;2023-12-20T09:23:42;2.30;;;1.77;;
37203;SDS011;23098;48.054;10.636;2023-12-20T09:26:08;1.67;;;1.38;;
37203;SDS011;23098;48.054;10.636;2023-12-20T09:28:33;1.70;;;1.50;;
37203;SDS011;23098;48.054;10.636;2023-12-20T09:31:02;1.45;;;1.13;;
37203;SDS011;23098;48.054;10.636;2023-12-20T09:33:30;2.20;;;1.77;;
37203;SDS011;23098;48.054;10.636;2023-12-20T09:35:55;1.38;;;1.27;;
37203;SDS011;23098;48.054;10.636;2023-12-20T09:38:21;2.08;;;1.63;;
37203;SDS011;23098;48.054;10.636;2023-12-20T09:40:47;2.45;;;1.90;;
37203;SDS011;23098;48.054;10.636;2023-12-20T09:43:18;2.22;;;1.92;;
37203;SDS011;23098;48.054;10.636;2023-12-20T09:45:47;1.30;;;1.20;;
37203;SDS011;23098;48.054;10.636;2023-12-20T09:48:13;2.38;;;1.92;;
37203;SDS011;23098;48.054;10.636;2023-12-20T09:50:42;1.35;;;1.05;;
37203;SDS011;23098;48.054;10.636;2023-12-20T09:53:11;1.40;;;1.20;;
37203;SDS011;23098;48.054;10.636;2023-12-20T09:55:42;1.15;;;1.05;;
37203;SDS011;23098;48.054;10.636;2023-12-20T09:58:08;1.42;;;1.05;;
37203;SDS011;23098;48.054;10.636;2023-12-20T10:00:37;1.83;;;1.35;;
37203;SDS011;23098;48.054;10.636;2023-12-20T10:03:02;2.55;;;1.70;;
37203;SDS011;23098;48.054;10.636;2023-12-20T10:05:31;1.80;;;1.10;;
37203;SDS011;23098;48.054;10.636;2023-12-20T10:07:58;2.00;;;1.58;;
37203;SDS011;23098;48.054;10.636;2023-12-20T10:10:24;1.40;;;1.30;;
37203;SDS011;23098;48.054;10.636;2023-12-20T10:13:06;1.70;;;1.40;;
37203;SDS011;23098;48.054;10.636;2023-12-20T10:15:34;3.22;;;1.80;;
37203;SDS011;23098;48.054;10.636;2023-12-20T10:18:00;1.95;;;1.60;;
37203;SDS011;23098;48.054;10.636;2023-12-20T10:20:27;1.30;;;1.20;;
37203;SDS011;23098;48.054;10.636;2023-12-20T10:22:54;2.00;;;1.60;;
37203;SDS011;23098;48.054;10.636;2023-12-20T10:25:23;1.92;;;1.50;;
37203;SDS011;23098;48.054;10.636;2023-12-20T10:27:50;2.20;;;1.80;;
37203;SDS011;23098;48.054;10.636;2023-12-20T10:30:33;2.03;;;1.58;;
37203;SDS011;23098;48.054;10.636;2023-12-20T10:32:59;2.17;;;1.67;;
37203;SDS011;23098;48.054;10.636;2023-12-20T10:35:24;2.33;;;1.10;;
37203;SDS011;23098;48.054;10.636;2023-12-20T10:37:51;1.63;;;1.40;;
37203;SDS011;23098;48.054;10.636;2023-12-20T10:40:21;2.22;;;1.67;;
37203;SDS011;23098;48.054;10.636;2023-12-20T10:42:47;2.10;;;1.60;;
37203;SDS011;23098;48.054;10.636;2023-12-20T10:45:14;1.45;;;1.00;;
37203;SDS011;23098;48.054;10.636;2023-12-20T10:47:42;2.40;;;1.25;;
37203;SDS011;23098;48.054;10.636;2023-12-20T10:50:11;1.23;;;1.08;;
37203;SDS011;23098;48.054;10.636;2023-12-20T10:52:36;1.25;;;1.10;;
37203;SDS011;23098;48.054;10.636;2023-12-20T10:55:03;2.03;;;1.42;;
37203;SDS011;23098;48.054;10.636;2023-12-20T10:57:30;1.98;;;1.50;;
37203;SDS011;23098;48.054;10.636;2023-12-20T10:59:55;1.67;;;1.33;;
37203;SDS011;23098;48.054;10.636;2023-12-20T11:02:31;1.77;;;1.35;;
37203;SDS011;23098;48.054;10.636;2023-12-20T11:07:57;1.67;;;1.33;;
37203;SDS011;23098;48.054;10.636;2023-12-20T11:10:34;3.10;;;1.30;;
37203;SDS011;23098;48.054;10.636;2023-12-20T11:13:12;2.20;;;1.63;;
37203;SDS011;23098;48.054;10.636;2023-12-20T11:15:45;2.17;;;1.48;;
37203;SDS011;23098;48.054;10.636;2023-12-20T11:18:11;2.10;;;1.60;;
37203;SDS011;23098;48.054;10.636;2023-12-20T11:20:40;1.90;;;1.50;;
37203;SDS011;23098;48.054;10.636;2023-12-20T11:23:07;1.75;;;1.38;;
37203;SDS011;23098;48.054;10.636;2023-12-20T11:28:12;2.47;;;1.55;;
37203;SDS011;23098;48.054;10.636;2023-12-20T11:30:41;2.67;;;1.58;;
37203;SDS011;23098;48.054;10.636;2023-12-20T11:33:24;1.67;;;1.08;;
37203;SDS011;23098;48.054;10.636;2023-12-20T11:35:56;1.88;;;1.67;;
37203;SDS011;23098;48.054;10.636;2023-12-20T11:38:22;2.22;;;1.90;;
37203;SDS011;23098;48.054;10.636;2023-12-20T11:40:49;2.05;;;1.60;;
37203;SDS011;23098;48.054;10.636;2023-12-20T11:43:31;2.22;;;1.40;;
37203;SDS011;23098;48.054;10.636;2023-12-20T11:46:07;2.03;;;1.60;;
37203;SDS011;23098;48.054;10.636;2023-12-20T11:48:34;1.67;;;1.23;;
37203;SDS011;23098;48.054;10.636;2023-12-20T11:51:11;1.75;;;1.45;;
37203;SDS011;23098;48.054;10.636;2023-12-20T11:53:37;1.83;;;1.60;;
37203;SDS011;23098;48.054;10.636;2023-12-20T11:56:04;1.35;;;1.20;;
37203;SDS011;23098;48.054;10.636;2023-12-20T11:58:33;1.52;;;1.15;;
37203;SDS011;23098;48.054;10.636;2023-12-20T12:00:58;1.92;;;1.48;;
37203;SDS011;23098;48.054;10.636;2023-12-20T12:03:24;1.88;;;1.05;;
37203;SDS011;23098;48.054;10.636;2023-12-20T12:05:50;2.05;;;1.58;;
37203;SDS011;23098;48.054;10.636;2023-12-20T12:08:19;1.55;;;1.25;;
37203;SDS011;23098;48.054;10.636;2023-12-20T12:10:44;1.60;;;1.42;;
37203;SDS011;23098;48.054;10.636;2023-12-20T12:13:10;1.63;;;1.13;;
37203;SDS011;23098;48.054;10.636;2023-12-20T12:15:36;1.40;;;1.13;;
37203;SDS011;23098;48.054;10.636;2023-12-20T12:18:02;1.05;;;0.95;;
37203;SDS011;23098;48.054;10.636;2023-12-20T12:20:29;1.58;;;1.17;;
37203;SDS011;23098;48.054;10.636;2023-12-20T12:23:01;1.98;;;1.35;;
37203;SDS011;23098;48.054;10.636;2023-12-20T12:25:29;1.80;;;1.13;;
37203;SDS011;23098;48.054;10.636;2023-12-20T12:27:56;1.70;;;1.10;;
37203;SDS011;23098;48.054;10.636;2023-12-20T12:30:25;1.45;;;0.80;;
37203;SDS011;23098;48.054;10.636;2023-12-20T12:32:51;1.35;;;1.02;;
37203;SDS011;23098;48.054;10.636;2023-12-20T12:35:18;1.20;;;1.10;;
37203;SDS011;23098;48.054;10.636;2023-12-20T12:37:44;2.15;;;1.15;;
37203;SDS011;23098;48.054;10.636;2023-12-20T12:40:10;1.33;;;1.05;;
37203;SDS011;23098;48.054;10.636;2023-12-20T12:42:38;2.03;;;1.50;;
37203;SDS011;23098;48.054;10.636;2023-12-20T12:45:05;1.98;;;1.52;;
37203;SDS011;23098;48.054;10.636;2023-12-20T12:47:32;1.60;;;1.10;;
37203;SDS011;23098;48.054;10.636;2023-12-20T12:49:58;1.58;;;1.00;;
37203;SDS011;23098;48.054;10.636;2023-12-20T12:52:24;1.42;;;0.90;;
37203;SDS011;23098;48.054;10.636;2023-12-20T12:54:51;0.70;;;0.60;;
37203;SDS011;23098;48.054;10.636;2023-12-20T12:57:18;1.15;;;0.80;;
37203;SDS011;23098;48.054;10.636;2023-12-20T12:59:45;0.70;;;0.60;;
37203;SDS011;23098;48.054;10.636;2023-12-20T13:02:12;0.93;;;0.80;;
37203;SDS011;23098;48.054;10.636;2023-12-20T13:04:39;1.83;;;0.90;;
37203;SDS011;23098;48.054;10.636;2023-12-20T13:07:05;1.67;;;0.90;;
37203;SDS011;23098;48.054;10.636;2023-12-20T13:09:31;1.13;;;0.77;;
37203;SDS011;23098;48.054;10.636;2023-12-20T13:11:57;1.25;;;0.90;;
37203;SDS011;23098;48.054;10.636;2023-12-20T13:14:22;0.82;;;0.68;;
37203;SDS011;23098;48.054;10.636;2023-12-20T13:16:48;1.02;;;0.93;;
37203;SDS011;23098;48.054;10.636;2023-12-20T13:19:14;1.50;;;1.20;;
37203;SDS011;23098;48.054;10.636;2023-12-20T13:21:40;1.73;;;1.27;;
37203;SDS011;23098;48.054;10.636;2023-12-20T13:24:06;2.35;;;1.33;;
37203;SDS011;23098;48.054;10.636;2023-12-20T13:26:31;4.30;;;1.00;;
37203;SDS011;23098;48.054;10.636;2023-12-20T13:28:57;1.65;;;1.23;;
37203;SDS011;23098;48.054;10.636;2023-12-20T13:31:23;1.95;;;1.40;;
37203;SDS011;23098;48.054;10.636;2023-12-20T13:33:49;1.90;;;1.27;;
37203;SDS011;23098;48.054;10.636;2023-12-20T13:36:16;1.95;;;1.48;;
37203;SDS011;23098;48.054;10.636;2023-12-20T13:38:42;6.07;;;2.60;;
37203;SDS011;23098;48.054;10.636;2023-12-20T13:41:08;3.00;;;1.70;;
37203;SDS011;23098;48.054;10.636;2023-12-20T13:43:34;2.08;;;1.52;;
37203;SDS011;23098;48.054;10.636;2023-12-20T13:45:59;2.30;;;1.73;;
37203;SDS011;23098;48.054;10.636;2023-12-20T13:48:25;3.83;;;2.22;;
37203;SDS011;23098;48.054;10.636;2023-12-20T13:50:50;10.00;;;4.05;;
37203;SDS011;23098;48.054;10.636;2023-12-20T13:53:16;2.88;;;1.73;;
37203;SDS011;23098;48.054;10.636;2023-12-20T13:55:42;2.38;;;1.92;;
37203;SDS011;23098;48.054;10.636;2023-12-20T13:58:07;3.97;;;2.33;;
37203;SDS011;23098;48.054;10.636;2023-12-20T14:00:35;15.73;;;7.00;;
37203;SDS011;23098;48.054;10.636;2023-12-20T14:03:01;3.85;;;2.38;;
37203;SDS011;23098;48.054;10.636;2023-12-20T14:05:28;4.60;;;2.75;;
37203;SDS011;23098;48.054;10.636;2023-12-20T14:07:53;2.38;;;1.52;;
37203;SDS011;23098;48.054;10.636;2023-12-20T14:10:19;3.58;;;2.10;;
37203;SDS011;23098;48.054;10.636;2023-12-20T14:12:44;1.27;;;1.05;;
37203;SDS011;23098;48.054;10.636;2023-12-20T14:15:10;1.25;;;1.00;;
37203;SDS011;23098;48.054;10.636;2023-12-20T14:17:38;1.20;;;1.10;;
37203;SDS011;23098;48.054;10.636;2023-12-20T14:20:07;2.60;;;1.40;;
37203;SDS011;23098;48.054;10.636;2023-12-20T14:22:33;1.85;;;1.27;;
37203;SDS011;23098;48.054;10.636;2023-12-20T14:25:00;2.03;;;1.30;;
37203;SDS011;23098;48.054;10.636;2023-12-20T14:27:26;1.30;;;1.20;;
37203;SDS011;23098;48.054;10.636;2023-12-20T14:29:55;0.98;;;0.88;;
37203;SDS011;23098;48.054;10.636;2023-12-20T14:32:20;0.65;;;0.57;;
37203;SDS011;23098;48.054;10.636;2023-12-20T14:34:46;5.72;;;3.05;;